createdAt,value
2023-01-17T00:05:34.090Z,30.15
2023-01-17T00:10:49.649Z,30.40
2023-01-17T00:15:49.127Z,28.65
2023-01-17T00:21:05.737Z,29.58
2023-01-17T00:26:07.414Z,34.92
2023-01-17T00:31:07.112Z,37.47
2023-01-17T00:36:09.234Z,37.92
2023-01-17T00:41:09.553Z,38.38
2023-01-17T00:46:27.259Z,34.15
2023-01-17T00:51:50.509Z,38.00
2023-01-17T00:57:10.895Z,29.60
2023-01-17T01:02:34.821Z,27.70
2023-01-17T01:08:18.565Z,24.40
2023-01-17T01:13:37.020Z,25.80
2023-01-17T01:18:58.327Z,16.88
2023-01-17T01:24:52.248Z,30.52
2023-01-17T01:30:14.061Z,25.60
2023-01-17T01:35:17.082Z,27.27
2023-01-17T01:40:29.232Z,23.03
2023-01-17T01:45:29.889Z,22.23
2023-01-17T01:50:30.715Z,19.92
2023-01-17T01:55:41.234Z,18.92
2023-01-17T02:00:42.417Z,19.38
2023-01-17T02:05:44.481Z,20.20
2023-01-17T02:10:56.145Z,15.35
2023-01-17T02:16:28.744Z,17.95
2023-01-17T02:21:43.841Z,20.88
2023-01-17T02:26:43.604Z,22.40
2023-01-17T02:31:54.996Z,11.10
2023-01-17T02:37:09.469Z,13.15
2023-01-17T02:42:18.518Z,12.00
2023-01-17T02:52:57.541Z,12.05
2023-01-17T02:58:28.252Z,22.60
2023-01-17T03:03:56.009Z,20.83
2023-01-17T03:09:01.225Z,14.32
2023-01-17T03:14:04.626Z,13.98
2023-01-17T03:19:04.171Z,11.82
2023-01-17T03:24:05.751Z,15.48
2023-01-17T03:29:07.105Z,14.23
2023-01-17T03:34:18.337Z,13.43
2023-01-17T03:39:17.480Z,17.83
2023-01-17T03:44:18.140Z,15.65
2023-01-17T03:49:20.152Z,13.93
2023-01-17T03:54:18.737Z,9.73
2023-01-17T03:59:20.029Z,24.85
2023-01-17T04:04:22.048Z,9.88
2023-01-17T04:09:22.133Z,7.85
2023-01-17T04:14:25.221Z,8.90
2023-01-17T04:19:37.670Z,14.80
2023-01-17T04:24:39.802Z,9.23
2023-01-17T04:29:40.172Z,13.05
2023-01-17T04:34:39.758Z,6.50
2023-01-17T04:39:52.038Z,7.05
2023-01-17T04:44:56.438Z,6.38
2023-01-17T04:49:57.993Z,6.15
2023-01-17T04:54:59.083Z,7.03
2023-01-17T04:59:58.386Z,5.65
2023-01-17T05:04:59.138Z,7.43
2023-01-17T05:10:01.216Z,6.07
2023-01-17T05:15:00.105Z,5.53
2023-01-17T05:20:11.057Z,10.68
2023-01-17T05:25:11.005Z,7.78
2023-01-17T05:30:15.571Z,7.05
2023-01-17T05:35:15.089Z,10.93
2023-01-17T05:40:19.458Z,5.28
2023-01-17T05:45:20.905Z,4.82
2023-01-17T05:50:27.914Z,6.82
2023-01-17T05:55:32.418Z,8.07
2023-01-17T06:00:32.876Z,6.80
2023-01-17T06:05:31.235Z,11.95
2023-01-17T06:10:34.539Z,11.55
2023-01-17T06:15:35.520Z,6.47
2023-01-17T06:20:35.950Z,4.82
2023-01-17T06:25:46.395Z,4.32
2023-01-17T06:30:45.004Z,4.63
2023-01-17T06:35:59.282Z,4.80
2023-01-17T06:41:47.784Z,11.05
2023-01-17T06:46:28.831Z,7.25
2023-01-17T06:51:32.461Z,15.82
2023-01-17T06:56:36.472Z,7.15
2023-01-17T07:01:41.918Z,4.25
2023-01-17T07:06:54.066Z,7.72
2023-01-17T07:18:14.837Z,7.57
2023-01-17T07:23:13.391Z,10.15
2023-01-17T07:29:01.775Z,9.23
2023-01-17T07:33:39.499Z,8.90
2023-01-17T07:38:38.546Z,15.93
2023-01-17T07:43:47.543Z,12.80
2023-01-17T07:49:09.576Z,11.57
2023-01-17T07:54:11.522Z,17.00
2023-01-17T07:59:17.105Z,14.43
2023-01-17T08:04:17.318Z,17.48
2023-01-17T08:09:34.441Z,16.55
2023-01-17T08:14:33.049Z,24.48
2023-01-17T08:19:38.310Z,17.83
2023-01-17T08:25:07.623Z,20.15
2023-01-17T08:30:35.203Z,19.55
2023-01-17T08:35:50.325Z,14.32
2023-01-17T08:41:13.443Z,17.63
2023-01-17T08:46:17.697Z,18.60
2023-01-17T08:57:09.224Z,18.13
2023-01-17T09:02:29.795Z,16.92
2023-01-17T09:07:30.557Z,13.65
2023-01-17T09:12:33.602Z,13.30
2023-01-17T09:17:32.014Z,10.30
2023-01-17T09:22:41.954Z,5.82
2023-01-17T09:28:15.766Z,8.27
2023-01-17T09:33:34.792Z,5.97
2023-01-17T09:38:52.909Z,6.43
2023-01-17T09:44:06.819Z,4.00
2023-01-17T09:49:24.940Z,4.07
2023-01-17T09:54:45.621Z,3.47
2023-01-17T10:00:03.329Z,5.35
2023-01-17T10:05:37.681Z,2.40
2023-01-17T10:10:49.202Z,4.20
2023-01-17T10:15:49.512Z,5.15
2023-01-17T10:20:56.675Z,6.82
2023-01-17T10:26:10.536Z,4.25
2023-01-17T10:31:36.445Z,5.38
2023-01-17T10:36:38.342Z,2.35
2023-01-17T10:41:44.220Z,2.72
2023-01-17T10:46:46.059Z,2.55
2023-01-17T10:52:06.473Z,2.35
2023-01-17T10:57:29.086Z,4.63
2023-01-17T11:02:47.229Z,6.07
2023-01-17T11:09:05.863Z,4.10
2023-01-17T11:14:25.914Z,5.72
2023-01-17T11:19:36.445Z,2.70
2023-01-17T11:25:21.111Z,4.65
2023-01-17T11:31:00.541Z,1.63
2023-01-17T11:35:59.471Z,3.70
2023-01-17T11:41:18.400Z,2.08
2023-01-17T11:46:21.103Z,3.15
2023-01-17T11:52:03.571Z,7.40
2023-01-17T11:57:02.476Z,3.28
2023-01-17T12:02:48.379Z,1.40
2023-01-17T12:08:22.256Z,3.88
2023-01-17T12:14:07.068Z,5.93
2023-01-17T12:19:47.082Z,2.47
2023-01-17T12:26:49.317Z,2.22
2023-01-17T12:31:43.343Z,4.30
2023-01-17T12:36:56.020Z,4.20
2023-01-17T12:41:58.032Z,3.72
2023-01-17T12:47:04.309Z,2.35
2023-01-17T12:52:20.635Z,4.93
2023-01-17T12:57:37.865Z,2.72
2023-01-17T13:02:44.328Z,4.82
2023-01-17T13:08:06.356Z,6.10
2023-01-17T13:13:33.307Z,7.75
2023-01-17T13:18:49.008Z,3.42
2023-01-17T13:24:23.991Z,3.83
2023-01-17T13:30:01.043Z,5.47
2023-01-17T13:35:43.746Z,8.93
2023-01-17T13:40:54.614Z,6.95
2023-01-17T13:46:18.600Z,6.00
2023-01-17T13:57:00.622Z,4.70
2023-01-17T14:02:02.540Z,6.97
2023-01-17T14:07:20.782Z,7.95
2023-01-17T14:12:40.606Z,6.25
2023-01-17T14:18:15.604Z,5.75
2023-01-17T14:30:22.451Z,5.20
2023-01-17T14:35:43.324Z,3.47
2023-01-17T14:40:58.611Z,9.52
2023-01-17T14:46:15.939Z,8.45
2023-01-17T14:51:25.740Z,4.10
2023-01-17T14:56:29.939Z,7.72
2023-01-17T15:02:07.539Z,9.45
2023-01-17T15:07:33.759Z,8.07
2023-01-17T15:12:39.604Z,12.50
2023-01-17T15:17:42.030Z,15.63
2023-01-17T15:22:55.453Z,4.50
2023-01-17T15:27:59.036Z,6.32
2023-01-17T15:45:19.832Z,5.90
2023-01-17T15:50:31.094Z,10.68
2023-01-17T15:56:02.930Z,7.13
2023-01-17T16:01:36.688Z,7.53
2023-01-17T16:11:56.863Z,5.65
2023-01-17T16:17:03.874Z,6.68
2023-01-17T16:22:21.700Z,4.88
2023-01-17T16:27:30.618Z,8.15
2023-01-17T16:32:29.821Z,8.35
2023-01-17T16:37:28.740Z,3.95
2023-01-17T16:42:28.674Z,7.35
2023-01-17T16:47:27.642Z,6.47
2023-01-17T16:52:28.189Z,10.32
2023-01-17T16:57:30.402Z,6.72
2023-01-17T17:02:31.489Z,5.03
2023-01-17T17:07:34.157Z,6.50
2023-01-17T17:12:36.188Z,10.98
2023-01-17T17:17:40.317Z,6.80
2023-01-17T17:22:39.373Z,6.25
2023-01-17T17:27:43.574Z,9.80
2023-01-17T17:32:45.703Z,39.67
2023-01-17T17:37:44.874Z,9.77
2023-01-17T17:42:44.110Z,7.72
2023-01-17T17:47:46.047Z,6.35
2023-01-17T17:52:46.637Z,5.55
2023-01-17T17:57:47.924Z,4.40
2023-01-17T18:02:48.508Z,5.63
2023-01-17T18:13:31.686Z,8.65
2023-01-17T18:18:31.492Z,6.47
2023-01-17T18:23:34.225Z,10.77
2023-01-17T18:28:34.716Z,4.95
2023-01-17T18:33:40.962Z,5.70
2023-01-17T18:38:46.750Z,5.45
2023-01-17T18:43:58.750Z,4.38
2023-01-17T18:49:00.272Z,4.85
2023-01-17T18:54:03.852Z,8.82
2023-01-17T18:59:06.655Z,4.85
2023-01-17T19:04:06.289Z,7.10
2023-01-17T19:09:31.771Z,3.35
2023-01-17T19:14:47.776Z,4.28
2023-01-17T19:19:53.365Z,6.20
2023-01-17T19:25:01.951Z,6.10
2023-01-17T19:30:00.164Z,4.97
2023-01-17T19:35:02.645Z,3.53
2023-01-17T19:40:05.855Z,3.45
2023-01-17T19:45:13.608Z,4.68
2023-01-17T19:50:19.438Z,5.75
2023-01-17T19:55:26.203Z,3.97
2023-01-17T20:00:30.125Z,4.00
2023-01-17T20:05:33.762Z,3.05
2023-01-17T20:10:32.645Z,5.15
2023-01-17T20:15:43.016Z,3.03
2023-01-17T20:20:57.081Z,4.63
2023-01-17T20:26:01.813Z,6.82
2023-01-17T20:31:11.285Z,4.35
2023-01-17T20:36:11.484Z,5.78
2023-01-17T20:41:36.954Z,12.57
2023-01-17T20:46:40.648Z,7.50
2023-01-17T21:01:46.739Z,4.75
2023-01-17T21:06:51.792Z,4.05
2023-01-17T21:11:54.683Z,4.82
2023-01-17T21:16:53.407Z,3.93
2023-01-17T21:21:59.539Z,5.88
2023-01-17T21:27:03.040Z,5.25
2023-01-17T21:32:07.946Z,4.13
2023-01-17T21:37:06.524Z,12.40
2023-01-17T21:42:04.822Z,6.88
2023-01-17T21:47:03.590Z,6.25
2023-01-17T21:52:01.943Z,5.57
2023-01-17T21:57:19.567Z,5.38
2023-01-17T22:02:17.460Z,3.70
2023-01-17T22:07:19.935Z,4.75
2023-01-17T22:12:19.403Z,1.85
2023-01-17T22:17:26.753Z,4.18
2023-01-17T22:22:27.915Z,4.30
2023-01-17T22:27:29.476Z,5.82
2023-01-17T22:32:32.055Z,5.43
2023-01-17T22:37:34.872Z,9.40
2023-01-17T22:42:36.627Z,8.70
2023-01-17T22:47:36.515Z,5.57
2023-01-17T22:52:35.953Z,5.05
2023-01-17T22:57:36.873Z,5.68
2023-01-17T23:02:38.262Z,3.30
2023-01-17T23:07:48.267Z,4.10
2023-01-17T23:12:56.394Z,6.30
2023-01-17T23:18:15.968Z,2.03
2023-01-17T23:23:16.759Z,2.28
2023-01-17T23:28:23.734Z,6.07
2023-01-17T23:33:23.138Z,2.30
2023-01-17T23:38:31.992Z,3.10
2023-01-17T23:43:32.984Z,4.15
2023-01-17T23:48:37.796Z,5.88
2023-01-17T23:53:39.034Z,3.65
2023-01-17T23:58:39.843Z,2.95
